PWSweather.com
Personal Weather Stations
Station Observations
K7AZM
Phoenix, AZ 85050

Phoenix, AZ 85050

Lat: 33.662, Lon: -112.019

Elevation: 1500

Station Type: Davis Vantage Vue

http://www.silhanek.com/weather

High Low Average
Temperature 69.0°F20.6°C 32.8°F0.4°C 50.4°F10.2°C
Dew Point 23.7°F-4.6°C 13.7°F-10.2°C 17.2°F-8.2°C
Winds 2.9 mph 4.7 kmh Calm Calm Calm SECalm SE
Wind Gusts 10.0 mph16.1 kmh -- 2.0 mph3.2 kmh
Humidity 51% 12% 29%
Pressure 30.19 in1022.4 mb 29.94 in1013.9 mb -
Precipitation 0.00 in0.0 mm - -
Hour Temp Dew Point Humidity Winds Wind Gusts Pressure Precip Precip Rate Daily Precip Total
12:00 AM 41.4°F5.2°C 16.5°F-8.6°C 36% Calm Calm 1.0 mph1.6 kmh 30.19 in1022.4 mb 0.00 in0.0 mm 0.00 in0.0 mm 0.00 in0.0 mm
12:05 AM 41.5°F5.3°C 16.6°F-8.6°C 36% 0.3 mph NE0.5 kmh NE 1.0 mph1.6 kmh 30.19 in1022.4 mb 0.00 in0.0 mm 0.00 in0.0 mm 0.00 in0.0 mm
12:10 AM 41.6°F5.3°C 16.6°F-8.6°C 36% Calm Calm 1.0 mph1.6 kmh 30.19 in1022.4 mb 0.00 in0.0 mm 0.00 in0.0 mm 0.00 in0.0 mm
12:15 AM 41.7°F5.4°C 16.1°F-8.8°C 35% 0.3 mph NE0.5 kmh NE 1.0 mph1.6 kmh 30.19 in1022.4 mb 0.00 in0.0 mm 0.00 in0.0 mm 0.00 in0.0 mm
12:20 AM 41.7°F5.4°C 16.1°F-8.8°C 35% 0.2 mph NE0.3 kmh NE 1.0 mph1.6 kmh 30.18 in1022.0 mb 0.00 in0.0 mm 0.00 in0.0 mm 0.00 in0.0 mm
12:25 AM 41.6°F5.3°C 16.0°F-8.9°C 35% Calm Calm 1.0 mph1.6 kmh 30.18 in1022.0 mb 0.00 in0.0 mm 0.00 in0.0 mm 0.00 in0.0 mm
12:30 AM 41.4°F5.2°C 16.5°F-8.6°C 36% 0.1 mph NE0.2 kmh NE 1.0 mph1.6 kmh 30.18 in1022.0 mb 0.00 in0.0 mm 0.00 in0.0 mm 0.00 in0.0 mm
12:35 AM 41.1°F5.1°C 16.2°F-8.8°C 36% 0.3 mph NE0.5 kmh NE 1.0 mph1.6 kmh 30.18 in1022.0 mb 0.00 in0.0 mm 0.00 in0.0 mm 0.00 in0.0 mm
12:40 AM 41.1°F5.1°C 16.2°F-8.8°C 36% Calm Calm 1.0 mph1.6 kmh 30.18 in1022.0 mb 0.00 in0.0 mm 0.00 in0.0 mm 0.00 in0.0 mm
12:45 AM 41.0°F5.0°C 16.1°F-8.8°C 36% Calm Calm 1.0 mph1.6 kmh 30.18 in1022.0 mb 0.00 in0.0 mm 0.00 in0.0 mm 0.00 in0.0 mm
12:50 AM 40.9°F4.9°C 16.0°F-8.9°C 36% 0.2 mph NE0.3 kmh NE 1.0 mph1.6 kmh 30.18 in1022.0 mb 0.00 in0.0 mm 0.00 in0.0 mm 0.00 in0.0 mm
12:55 AM 40.7°F4.8°C 15.8°F-9.0°C 36% 0.2 mph NE0.3 kmh NE 1.0 mph1.6 kmh 30.18 in1022.0 mb 0.00 in0.0 mm 0.00 in0.0 mm 0.00 in0.0 mm
01:00 AM 40.4°F4.7°C 15.6°F-9.1°C 36% Calm Calm 1.0 mph1.6 kmh 30.18 in1022.0 mb 0.00 in0.0 mm 0.00 in0.0 mm 0.00 in0.0 mm
01:05 AM 40.1°F4.5°C 15.9°F-8.9°C 37% Calm Calm -- 30.18 in1022.0 mb 0.00 in0.0 mm 0.00 in0.0 mm 0.00 in0.0 mm
01:10 AM 40.1°F4.5°C 15.9°F-8.9°C 37% 0.1 mph NE0.2 kmh NE 1.0 mph1.6 kmh 30.18 in1022.0 mb 0.00 in0.0 mm 0.00 in0.0 mm 0.00 in0.0 mm
01:15 AM 40.3°F4.6°C 16.1°F-8.8°C 37% 0.1 mph NE0.2 kmh NE 1.0 mph1.6 kmh 30.18 in1022.0 mb 0.00 in0.0 mm 0.00 in0.0 mm 0.00 in0.0 mm
01:20 AM 40.1°F4.5°C 15.9°F-8.9°C 37% Calm Calm 1.0 mph1.6 kmh 30.18 in1022.0 mb 0.00 in0.0 mm 0.00 in0.0 mm 0.00 in0.0 mm
01:25 AM 40.0°F4.4°C 15.9°F-8.9°C 37% Calm Calm 1.0 mph1.6 kmh 30.18 in1022.0 mb 0.00 in0.0 mm 0.00 in0.0 mm 0.00 in0.0 mm
01:30 AM 39.7°F4.3°C 15.6°F-9.1°C 37% Calm Calm 1.0 mph1.6 kmh 30.18 in1022.0 mb 0.00 in0.0 mm 0.00 in0.0 mm 0.00 in0.0 mm
01:35 AM 39.5°F4.2°C 15.4°F-9.2°C 37% Calm Calm 1.0 mph1.6 kmh 30.17 in1021.7 mb 0.00 in0.0 mm 0.00 in0.0 mm 0.00 in0.0 mm
01:40 AM 39.3°F4.1°C 15.2°F-9.3°C 37% 0.1 mph NE0.2 kmh NE 1.0 mph1.6 kmh 30.17 in1021.7 mb 0.00 in0.0 mm 0.00 in0.0 mm 0.00 in0.0 mm
01:45 AM 39.2°F4.0°C 15.1°F-9.4°C 37% 0.1 mph NE0.2 kmh NE 1.0 mph1.6 kmh 30.17 in1021.7 mb 0.00 in0.0 mm 0.00 in0.0 mm 0.00 in0.0 mm
01:50 AM 39.1°F3.9°C 15.1°F-9.4°C 37% Calm Calm 1.0 mph1.6 kmh 30.17 in1021.7 mb 0.00 in0.0 mm 0.00 in0.0 mm 0.00 in0.0 mm
01:55 AM 38.9°F3.8°C 15.5°F-9.2°C 38% Calm Calm 1.0 mph1.6 kmh 30.17 in1021.7 mb 0.00 in0.0 mm 0.00 in0.0 mm 0.00 in0.0 mm
02:00 AM 38.7°F3.7°C 15.3°F-9.3°C 38% Calm Calm 1.0 mph1.6 kmh 30.17 in1021.7 mb 0.00 in0.0 mm 0.00 in0.0 mm 0.00 in0.0 mm
02:05 AM 38.6°F3.7°C 15.8°F-9.0°C 39% Calm Calm 1.0 mph1.6 kmh 30.17 in1021.7 mb 0.00 in0.0 mm 0.00 in0.0 mm 0.00 in0.0 mm
02:10 AM 38.4°F3.6°C 15.6°F-9.1°C 39% Calm Calm 1.0 mph1.6 kmh 30.16 in1021.3 mb 0.00 in0.0 mm 0.00 in0.0 mm 0.00 in0.0 mm
02:15 AM 38.2°F3.4°C 15.4°F-9.2°C 39% Calm Calm 1.0 mph1.6 kmh 30.16 in1021.3 mb 0.00 in0.0 mm 0.00 in0.0 mm 0.00 in0.0 mm
02:20 AM 37.9°F3.3°C 15.8°F-9.0°C 40% Calm Calm -- 30.16 in1021.3 mb 0.00 in0.0 mm 0.00 in0.0 mm 0.00 in0.0 mm
02:25 AM 37.7°F3.2°C 15.6°F-9.1°C 40% Calm Calm -- 30.16 in1021.3 mb 0.00 in0.0 mm 0.00 in0.0 mm 0.00 in0.0 mm
02:30 AM 37.8°F3.2°C 15.7°F-9.1°C 40% Calm Calm 1.0 mph1.6 kmh 30.16 in1021.3 mb 0.00 in0.0 mm 0.00 in0.0 mm 0.00 in0.0 mm
02:35 AM 38.0°F3.3°C 15.8°F-9.0°C 40% Calm Calm 1.0 mph1.6 kmh 30.16 in1021.3 mb 0.00 in0.0 mm 0.00 in0.0 mm 0.00 in0.0 mm
02:40 AM 38.0°F3.3°C 15.8°F-9.0°C 40% Calm Calm 1.0 mph1.6 kmh 30.16 in1021.3 mb 0.00 in0.0 mm 0.00 in0.0 mm 0.00 in0.0 mm
02:45 AM 38.0°F3.3°C 15.8°F-9.0°C 40% Calm Calm 1.0 mph1.6 kmh 30.15 in1021.0 mb 0.00 in0.0 mm 0.00 in0.0 mm 0.00 in0.0 mm
02:50 AM 38.0°F3.3°C 15.8°F-9.0°C 40% Calm Calm 1.0 mph1.6 kmh 30.15 in1021.0 mb 0.00 in0.0 mm 0.00 in0.0 mm 0.00 in0.0 mm
02:55 AM 37.9°F3.3°C 15.8°F-9.0°C 40% Calm Calm -- 30.15 in1021.0 mb 0.00 in0.0 mm 0.00 in0.0 mm 0.00 in0.0 mm
03:00 AM 37.6°F3.1°C 15.5°F-9.2°C 40% Calm Calm -- 30.16 in1021.3 mb 0.00 in0.0 mm 0.00 in0.0 mm 0.00 in0.0 mm
03:05 AM 37.1°F2.8°C 15.6°F-9.1°C 41% Calm Calm -- 30.16 in1021.3 mb 0.00 in0.0 mm 0.00 in0.0 mm 0.00 in0.0 mm
03:10 AM 36.5°F2.5°C 15.6°F-9.1°C 42% Calm Calm -- 30.16 in1021.3 mb 0.00 in0.0 mm 0.00 in0.0 mm 0.00 in0.0 mm
03:15 AM 35.9°F2.2°C 15.6°F-9.1°C 43% Calm Calm -- 30.15 in1021.0 mb 0.00 in0.0 mm 0.00 in0.0 mm 0.00 in0.0 mm
03:20 AM 35.8°F2.1°C 16.0°F-8.9°C 44% Calm Calm -- 30.15 in1021.0 mb 0.00 in0.0 mm 0.00 in0.0 mm 0.00 in0.0 mm
03:25 AM 36.6°F2.6°C 16.2°F-8.8°C 43% Calm Calm -- 30.15 in1021.0 mb 0.00 in0.0 mm 0.00 in0.0 mm 0.00 in0.0 mm
03:30 AM 37.1°F2.8°C 16.2°F-8.8°C 42% 0.3 mph NE0.5 kmh NE 1.0 mph1.6 kmh 30.15 in1021.0 mb 0.00 in0.0 mm 0.00 in0.0 mm 0.00 in0.0 mm
03:35 AM 37.0°F2.8°C 16.1°F-8.8°C 42% Calm Calm 1.0 mph1.6 kmh 30.15 in1021.0 mb 0.00 in0.0 mm 0.00 in0.0 mm 0.00 in0.0 mm
03:40 AM 36.8°F2.7°C 16.4°F-8.7°C 43% Calm Calm 1.0 mph1.6 kmh 30.15 in1021.0 mb 0.00 in0.0 mm 0.00 in0.0 mm 0.00 in0.0 mm
03:45 AM 36.6°F2.6°C 16.2°F-8.8°C 43% Calm Calm 1.0 mph1.6 kmh 30.14 in1020.7 mb 0.00 in0.0 mm 0.00 in0.0 mm 0.00 in0.0 mm
03:50 AM 36.4°F2.4°C 16.1°F-8.8°C 43% Calm Calm 1.0 mph1.6 kmh 30.14 in1020.7 mb 0.00 in0.0 mm 0.00 in0.0 mm 0.00 in0.0 mm
03:55 AM 36.3°F2.4°C 16.0°F-8.9°C 43% Calm Calm 1.0 mph1.6 kmh 30.14 in1020.7 mb 0.00 in0.0 mm 0.00 in0.0 mm 0.00 in0.0 mm
04:00 AM 36.2°F2.3°C 15.3°F-9.3°C 42% Calm Calm 1.0 mph1.6 kmh 30.14 in1020.7 mb 0.00 in0.0 mm 0.00 in0.0 mm 0.00 in0.0 mm
04:05 AM 36.1°F2.3°C 15.8°F-9.0°C 43% Calm Calm -- 30.14 in1020.7 mb 0.00 in0.0 mm 0.00 in0.0 mm 0.00 in0.0 mm
04:10 AM 35.9°F2.2°C 15.6°F-9.1°C 43% Calm Calm -- 30.13 in1020.3 mb 0.00 in0.0 mm 0.00 in0.0 mm 0.00 in0.0 mm
04:15 AM 35.8°F2.1°C 15.5°F-9.2°C 43% Calm Calm 1.0 mph1.6 kmh 30.13 in1020.3 mb 0.00 in0.0 mm 0.00 in0.0 mm 0.00 in0.0 mm
04:20 AM 35.8°F2.1°C 15.5°F-9.2°C 43% Calm Calm 1.0 mph1.6 kmh 30.13 in1020.3 mb 0.00 in0.0 mm 0.00 in0.0 mm 0.00 in0.0 mm
04:25 AM 35.7°F2.1°C 15.4°F-9.2°C 43% Calm Calm 1.0 mph1.6 kmh 30.13 in1020.3 mb 0.00 in0.0 mm 0.00 in0.0 mm 0.00 in0.0 mm
04:30 AM 35.6°F2.0°C 15.3°F-9.3°C 43% 0.1 mph NE0.2 kmh NE 1.0 mph1.6 kmh 30.13 in1020.3 mb 0.00 in0.0 mm 0.00 in0.0 mm 0.00 in0.0 mm
04:35 AM 35.5°F1.9°C 15.2°F-9.3°C 43% Calm Calm 1.0 mph1.6 kmh 30.13 in1020.3 mb 0.00 in0.0 mm 0.00 in0.0 mm 0.00 in0.0 mm
04:40 AM 35.5°F1.9°C 15.8°F-9.0°C 44% Calm Calm 1.0 mph1.6 kmh 30.13 in1020.3 mb 0.00 in0.0 mm 0.00 in0.0 mm 0.00 in0.0 mm
04:45 AM 35.5°F1.9°C 15.8°F-9.0°C 44% Calm Calm 1.0 mph1.6 kmh 30.13 in1020.3 mb 0.00 in0.0 mm 0.00 in0.0 mm 0.00 in0.0 mm
04:50 AM 35.6°F2.0°C 15.9°F-8.9°C 44% Calm Calm 1.0 mph1.6 kmh 30.13 in1020.3 mb 0.00 in0.0 mm 0.00 in0.0 mm 0.00 in0.0 mm
04:55 AM 35.5°F1.9°C 15.8°F-9.0°C 44% Calm Calm -- 30.13 in1020.3 mb 0.00 in0.0 mm 0.00 in0.0 mm 0.00 in0.0 mm
05:00 AM 35.6°F2.0°C 15.9°F-8.9°C 44% Calm Calm 1.0 mph1.6 kmh 30.13 in1020.3 mb 0.00 in0.0 mm 0.00 in0.0 mm 0.00 in0.0 mm
05:05 AM 35.8°F2.1°C 15.5°F-9.2°C 43% 0.1 mph NE0.2 kmh NE 1.0 mph1.6 kmh 30.13 in1020.3 mb 0.00 in0.0 mm 0.00 in0.0 mm 0.00 in0.0 mm
05:10 AM 35.8°F2.1°C 15.5°F-9.2°C 43% Calm Calm 1.0 mph1.6 kmh 30.13 in1020.3 mb 0.00 in0.0 mm 0.00 in0.0 mm 0.00 in0.0 mm
05:15 AM 35.8°F2.1°C 15.5°F-9.2°C 43% Calm Calm 1.0 mph1.6 kmh 30.13 in1020.3 mb 0.00 in0.0 mm 0.00 in0.0 mm 0.00 in0.0 mm
05:20 AM 35.6°F2.0°C 15.3°F-9.3°C 43% 0.1 mph NE0.2 kmh NE 1.0 mph1.6 kmh 30.13 in1020.3 mb 0.00 in0.0 mm 0.00 in0.0 mm 0.00 in0.0 mm
05:25 AM 35.7°F2.1°C 15.4°F-9.2°C 43% 0.2 mph N0.3 kmh N 1.0 mph1.6 kmh 30.13 in1020.3 mb 0.00 in0.0 mm 0.00 in0.0 mm 0.00 in0.0 mm
05:30 AM 35.5°F1.9°C 15.2°F-9.3°C 43% 0.1 mph NW0.2 kmh NW 1.0 mph1.6 kmh 30.13 in1020.3 mb 0.00 in0.0 mm 0.00 in0.0 mm 0.00 in0.0 mm
05:35 AM 35.3°F1.8°C 15.6°F-9.1°C 44% Calm Calm 1.0 mph1.6 kmh 30.13 in1020.3 mb 0.00 in0.0 mm 0.00 in0.0 mm 0.00 in0.0 mm
05:40 AM 35.4°F1.9°C 15.7°F-9.1°C 44% Calm Calm 1.0 mph1.6 kmh 30.12 in1020.0 mb 0.00 in0.0 mm 0.00 in0.0 mm 0.00 in0.0 mm
05:45 AM 35.5°F1.9°C 15.8°F-9.0°C 44% Calm Calm 1.0 mph1.6 kmh 30.12 in1020.0 mb 0.00 in0.0 mm 0.00 in0.0 mm 0.00 in0.0 mm
05:50 AM 35.7°F2.1°C 16.0°F-8.9°C 44% Calm Calm 1.0 mph1.6 kmh 30.12 in1020.0 mb 0.00 in0.0 mm 0.00 in0.0 mm 0.00 in0.0 mm
05:55 AM 35.7°F2.1°C 16.0°F-8.9°C 44% 0.1 mph NNE0.2 kmh NNE 1.0 mph1.6 kmh 30.12 in1020.0 mb 0.00 in0.0 mm 0.00 in0.0 mm 0.00 in0.0 mm
06:00 AM 35.9°F2.2°C 15.6°F-9.1°C 43% 0.1 mph NNE0.2 kmh NNE 1.0 mph1.6 kmh 30.12 in1020.0 mb 0.00 in0.0 mm 0.00 in0.0 mm 0.00 in0.0 mm
06:05 AM 35.9°F2.2°C 15.6°F-9.1°C 43% 0.4 mph N0.6 kmh N 1.0 mph1.6 kmh 30.12 in1020.0 mb 0.00 in0.0 mm 0.00 in0.0 mm 0.00 in0.0 mm
06:10 AM 35.9°F2.2°C 15.6°F-9.1°C 43% Calm Calm 1.0 mph1.6 kmh 30.12 in1020.0 mb 0.00 in0.0 mm 0.00 in0.0 mm 0.00 in0.0 mm
06:15 AM 35.7°F2.1°C 16.0°F-8.9°C 44% Calm Calm 1.0 mph1.6 kmh 30.11 in1019.6 mb 0.00 in0.0 mm 0.00 in0.0 mm 0.00 in0.0 mm
06:20 AM 35.5°F1.9°C 15.8°F-9.0°C 44% Calm Calm 1.0 mph1.6 kmh 30.11 in1019.6 mb 0.00 in0.0 mm 0.00 in0.0 mm 0.00 in0.0 mm
06:25 AM 35.3°F1.8°C 16.1°F-8.8°C 45% Calm Calm 1.0 mph1.6 kmh 30.11 in1019.6 mb 0.00 in0.0 mm 0.00 in0.0 mm 0.00 in0.0 mm
06:30 AM 35.1°F1.7°C 15.9°F-8.9°C 45% Calm Calm 1.0 mph1.6 kmh 30.11 in1019.6 mb 0.00 in0.0 mm 0.00 in0.0 mm 0.00 in0.0 mm
06:35 AM 35.0°F1.7°C 15.8°F-9.0°C 45% Calm Calm 1.0 mph1.6 kmh 30.11 in1019.6 mb 0.00 in0.0 mm 0.00 in0.0 mm 0.00 in0.0 mm
06:40 AM 35.2°F1.8°C 16.0°F-8.9°C 45% 0.1 mph N0.2 kmh N 1.0 mph1.6 kmh 30.11 in1019.6 mb 0.00 in0.0 mm 0.00 in0.0 mm 0.00 in0.0 mm
06:45 AM 35.4°F1.9°C 16.2°F-8.8°C 45% 0.2 mph N0.3 kmh N 1.0 mph1.6 kmh 30.11 in1019.6 mb 0.00 in0.0 mm 0.00 in0.0 mm 0.00 in0.0 mm
06:50 AM 35.7°F2.1°C 16.0°F-8.9°C 44% 0.1 mph N0.2 kmh N 1.0 mph1.6 kmh 30.12 in1020.0 mb 0.00 in0.0 mm 0.00 in0.0 mm 0.00 in0.0 mm
06:55 AM 35.7°F2.1°C 16.0°F-8.9°C 44% 0.5 mph N0.8 kmh N 2.0 mph3.2 kmh 30.12 in1020.0 mb 0.00 in0.0 mm 0.00 in0.0 mm 0.00 in0.0 mm
07:00 AM 35.7°F2.1°C 16.0°F-8.9°C 44% Calm Calm 2.0 mph3.2 kmh 30.12 in1020.0 mb 0.00 in0.0 mm 0.00 in0.0 mm 0.00 in0.0 mm
07:05 AM 35.7°F2.1°C 16.0°F-8.9°C 44% Calm Calm 1.0 mph1.6 kmh 30.12 in1020.0 mb 0.00 in0.0 mm 0.00 in0.0 mm 0.00 in0.0 mm
07:10 AM 35.4°F1.9°C 16.2°F-8.8°C 45% Calm Calm -- 30.12 in1020.0 mb 0.00 in0.0 mm 0.00 in0.0 mm 0.00 in0.0 mm
07:15 AM 35.0°F1.7°C 16.3°F-8.7°C 46% Calm Calm -- 30.12 in1020.0 mb 0.00 in0.0 mm 0.00 in0.0 mm 0.00 in0.0 mm
07:20 AM 34.4°F1.3°C 15.8°F-9.0°C 46% Calm Calm -- 30.12 in1020.0 mb 0.00 in0.0 mm 0.00 in0.0 mm 0.00 in0.0 mm
07:25 AM 33.8°F1.0°C 16.2°F-8.8°C 48% Calm Calm -- 30.13 in1020.3 mb 0.00 in0.0 mm 0.00 in0.0 mm 0.00 in0.0 mm
07:30 AM 33.3°F0.7°C 15.8°F-9.0°C 48% Calm Calm -- 30.13 in1020.3 mb 0.00 in0.0 mm 0.00 in0.0 mm 0.00 in0.0 mm
07:35 AM 32.8°F0.4°C 15.8°F-9.0°C 49% Calm Calm -- 30.13 in1020.3 mb 0.00 in0.0 mm 0.00 in0.0 mm 0.00 in0.0 mm
07:40 AM 32.8°F0.4°C 16.2°F-8.8°C 50% Calm Calm -- 30.13 in1020.3 mb 0.00 in0.0 mm 0.00 in0.0 mm 0.00 in0.0 mm
07:45 AM 32.9°F0.5°C 16.8°F-8.4°C 51% Calm Calm -- 30.14 in1020.7 mb 0.00 in0.0 mm 0.00 in0.0 mm 0.00 in0.0 mm
07:50 AM 33.6°F0.9°C 17.4°F-8.1°C 51% Calm Calm -- 30.14 in1020.7 mb 0.00 in0.0 mm 0.00 in0.0 mm 0.00 in0.0 mm
07:55 AM 35.4°F1.9°C 17.7°F-7.9°C 48% Calm Calm 1.0 mph1.6 kmh 30.14 in1020.7 mb 0.00 in0.0 mm 0.00 in0.0 mm 0.00 in0.0 mm
08:00 AM 36.5°F2.5°C 17.7°F-7.9°C 46% Calm Calm 1.0 mph1.6 kmh 30.14 in1020.7 mb 0.00 in0.0 mm 0.00 in0.0 mm 0.00 in0.0 mm
08:05 AM 37.2°F2.9°C 17.3°F-8.2°C 44% Calm Calm -- 30.14 in1020.7 mb 0.00 in0.0 mm 0.00 in0.0 mm 0.00 in0.0 mm
08:10 AM 37.7°F3.2°C 17.8°F-7.9°C 44% Calm Calm -- 30.14 in1020.7 mb 0.00 in0.0 mm 0.00 in0.0 mm 0.00 in0.0 mm
08:15 AM 38.2°F3.4°C 17.7°F-7.9°C 43% Calm Calm -- 30.14 in1020.7 mb 0.00 in0.0 mm 0.00 in0.0 mm 0.00 in0.0 mm
08:20 AM 39.0°F3.9°C 18.4°F-7.6°C 43% Calm Calm -- 30.14 in1020.7 mb 0.00 in0.0 mm 0.00 in0.0 mm 0.00 in0.0 mm
08:25 AM 40.0°F4.4°C 18.2°F-7.7°C 41% Calm Calm -- 30.14 in1020.7 mb 0.00 in0.0 mm 0.00 in0.0 mm 0.00 in0.0 mm
08:30 AM 40.5°F4.7°C 18.1°F-7.7°C 40% Calm Calm -- 30.14 in1020.7 mb 0.00 in0.0 mm 0.00 in0.0 mm 0.00 in0.0 mm
08:35 AM 40.8°F4.9°C 17.8°F-7.9°C 39% Calm Calm -- 30.14 in1020.7 mb 0.00 in0.0 mm 0.00 in0.0 mm 0.00 in0.0 mm
08:40 AM 41.5°F5.3°C 18.4°F-7.6°C 39% Calm Calm -- 30.14 in1020.7 mb 0.00 in0.0 mm 0.00 in0.0 mm 0.00 in0.0 mm
08:45 AM 42.5°F5.8°C 18.1°F-7.7°C 37% Calm Calm -- 30.14 in1020.7 mb 0.00 in0.0 mm 0.00 in0.0 mm 0.00 in0.0 mm
08:50 AM 43.5°F6.4°C 18.3°F-7.6°C 36% Calm Calm -- 30.14 in1020.7 mb 0.00 in0.0 mm 0.00 in0.0 mm 0.00 in0.0 mm
08:55 AM 44.4°F6.9°C 18.5°F-7.5°C 35% Calm Calm -- 30.14 in1020.7 mb 0.00 in0.0 mm 0.00 in0.0 mm 0.00 in0.0 mm
09:00 AM 45.1°F7.3°C 18.4°F-7.6°C 34% 0.1 mph SW0.2 kmh SW 1.0 mph1.6 kmh 30.14 in1020.7 mb 0.00 in0.0 mm 0.00 in0.0 mm 0.00 in0.0 mm
09:05 AM 45.7°F7.6°C 18.3°F-7.6°C 33% Calm Calm 1.0 mph1.6 kmh 30.14 in1020.7 mb 0.00 in0.0 mm 0.00 in0.0 mm 0.00 in0.0 mm
09:10 AM 46.2°F7.9°C 18.7°F-7.4°C 33% Calm Calm 1.0 mph1.6 kmh 30.15 in1021.0 mb 0.00 in0.0 mm 0.00 in0.0 mm 0.00 in0.0 mm
09:15 AM 46.7°F8.2°C 17.7°F-7.9°C 31% 0.1 mph SW0.2 kmh SW 1.0 mph1.6 kmh 30.14 in1020.7 mb 0.00 in0.0 mm 0.00 in0.0 mm 0.00 in0.0 mm
09:20 AM 47.5°F8.6°C 19.1°F-7.2°C 32% 0.6 mph SW1.0 kmh SW 2.0 mph3.2 kmh 30.15 in1021.0 mb 0.00 in0.0 mm 0.00 in0.0 mm 0.00 in0.0 mm
09:25 AM 48.2°F9.0°C 19.0°F-7.2°C 31% Calm Calm 2.0 mph3.2 kmh 30.14 in1020.7 mb 0.00 in0.0 mm 0.00 in0.0 mm 0.00 in0.0 mm
09:30 AM 48.8°F9.3°C 19.5°F-6.9°C 31% 0.1 mph SSW0.2 kmh SSW 1.0 mph1.6 kmh 30.14 in1020.7 mb 0.00 in0.0 mm 0.00 in0.0 mm 0.00 in0.0 mm
09:35 AM 49.4°F9.7°C 19.3°F-7.1°C 30% 0.4 mph SSW0.6 kmh SSW 1.0 mph1.6 kmh 30.15 in1021.0 mb 0.00 in0.0 mm 0.00 in0.0 mm 0.00 in0.0 mm
09:40 AM 49.9°F9.9°C 18.9°F-7.3°C 29% 0.4 mph SW0.6 kmh SW 1.0 mph1.6 kmh 30.15 in1021.0 mb 0.00 in0.0 mm 0.00 in0.0 mm 0.00 in0.0 mm
09:45 AM 50.4°F10.2°C 18.5°F-7.5°C 28% 0.5 mph SSE0.8 kmh SSE 2.0 mph3.2 kmh 30.14 in1020.7 mb 0.00 in0.0 mm 0.00 in0.0 mm 0.00 in0.0 mm
09:50 AM 50.8°F10.4°C 19.7°F-6.8°C 29% 0.5 mph SSW0.8 kmh SSW 2.0 mph3.2 kmh 30.14 in1020.7 mb 0.00 in0.0 mm 0.00 in0.0 mm 0.00 in0.0 mm
09:55 AM 51.2°F10.7°C 20.1°F-6.6°C 29% 0.4 mph S0.6 kmh S 1.0 mph1.6 kmh 30.14 in1020.7 mb 0.00 in0.0 mm 0.00 in0.0 mm 0.00 in0.0 mm
10:00 AM 51.7°F10.9°C 19.7°F-6.8°C 28% 0.1 mph SSW0.2 kmh SSW 1.0 mph1.6 kmh 30.14 in1020.7 mb 0.00 in0.0 mm 0.00 in0.0 mm 0.00 in0.0 mm
10:05 AM 52.4°F11.3°C 20.3°F-6.5°C 28% 0.3 mph S0.5 kmh S 2.0 mph3.2 kmh 30.14 in1020.7 mb 0.00 in0.0 mm 0.00 in0.0 mm 0.00 in0.0 mm
10:10 AM 53.2°F11.8°C 21.8°F-5.7°C 29% 0.3 mph S0.5 kmh S 2.0 mph3.2 kmh 30.14 in1020.7 mb 0.00 in0.0 mm 0.00 in0.0 mm 0.00 in0.0 mm
10:15 AM 53.9°F12.2°C 19.8°F-6.8°C 26% 0.1 mph SW0.2 kmh SW 2.0 mph3.2 kmh 30.14 in1020.7 mb 0.00 in0.0 mm 0.00 in0.0 mm 0.00 in0.0 mm
10:20 AM 54.6°F12.6°C 21.3°F-5.9°C 27% 0.5 mph S0.8 kmh S 2.0 mph3.2 kmh 30.13 in1020.3 mb 0.00 in0.0 mm 0.00 in0.0 mm 0.00 in0.0 mm
10:25 AM 55.1°F12.8°C 19.9°F-6.7°C 25% 0.3 mph E0.5 kmh E 2.0 mph3.2 kmh 30.13 in1020.3 mb 0.00 in0.0 mm 0.00 in0.0 mm 0.00 in0.0 mm
10:30 AM 55.7°F13.2°C 20.4°F-6.4°C 25% 0.2 mph W0.3 kmh W 2.0 mph3.2 kmh 30.12 in1020.0 mb 0.00 in0.0 mm 0.00 in0.0 mm 0.00 in0.0 mm
10:35 AM 56.6°F13.7°C 22.1°F-5.5°C 26% 0.3 mph WSW0.5 kmh WSW 2.0 mph3.2 kmh 30.12 in1020.0 mb 0.00 in0.0 mm 0.00 in0.0 mm 0.00 in0.0 mm
10:40 AM 57.3°F14.1°C 20.8°F-6.2°C 24% Calm Calm 2.0 mph3.2 kmh 30.12 in1020.0 mb 0.00 in0.0 mm 0.00 in0.0 mm 0.00 in0.0 mm
10:45 AM 58.0°F14.4°C 19.4°F-7.0°C 22% Calm Calm 1.0 mph1.6 kmh 30.12 in1020.0 mb 0.00 in0.0 mm 0.00 in0.0 mm 0.00 in0.0 mm
10:50 AM 58.3°F14.6°C 20.7°F-6.3°C 23% 0.1 mph ESE0.2 kmh ESE 1.0 mph1.6 kmh 30.12 in1020.0 mb 0.00 in0.0 mm 0.00 in0.0 mm 0.00 in0.0 mm
10:55 AM 58.9°F14.9°C 20.1°F-6.6°C 22% 0.2 mph S0.3 kmh S 1.0 mph1.6 kmh 30.11 in1019.6 mb 0.00 in0.0 mm 0.00 in0.0 mm 0.00 in0.0 mm
11:00 AM 59.3°F15.2°C 19.4°F-7.0°C 21% 0.2 mph E0.3 kmh E 1.0 mph1.6 kmh 30.11 in1019.6 mb 0.00 in0.0 mm 0.00 in0.0 mm 0.00 in0.0 mm
11:05 AM 59.4°F15.2°C 20.6°F-6.3°C 22% 0.1 mph SSE0.2 kmh SSE 2.0 mph3.2 kmh 30.11 in1019.6 mb 0.00 in0.0 mm 0.00 in0.0 mm 0.00 in0.0 mm
11:10 AM 59.0°F15.0°C 18.0°F-7.8°C 20% 0.8 mph ENE1.3 kmh ENE 2.0 mph3.2 kmh 30.11 in1019.6 mb 0.00 in0.0 mm 0.00 in0.0 mm 0.00 in0.0 mm
11:15 AM 59.1°F15.1°C 18.1°F-7.7°C 20% 0.1 mph NE0.2 kmh NE 2.0 mph3.2 kmh 30.11 in1019.6 mb 0.00 in0.0 mm 0.00 in0.0 mm 0.00 in0.0 mm
11:20 AM 60.0°F15.6°C 18.8°F-7.3°C 20% 0.4 mph S0.6 kmh S 2.0 mph3.2 kmh 30.11 in1019.6 mb 0.00 in0.0 mm 0.00 in0.0 mm 0.00 in0.0 mm
11:25 AM 60.7°F15.9°C 19.4°F-7.0°C 20% 0.8 mph ESE1.3 kmh ESE 4.0 mph6.4 kmh 30.11 in1019.6 mb 0.00 in0.0 mm 0.00 in0.0 mm 0.00 in0.0 mm
11:30 AM 60.5°F15.8°C 16.8°F-8.4°C 18% 0.7 mph ENE1.1 kmh ENE 4.0 mph6.4 kmh 30.10 in1019.3 mb 0.00 in0.0 mm 0.00 in0.0 mm 0.00 in0.0 mm
11:35 AM 60.4°F15.8°C 18.0°F-7.8°C 19% 0.7 mph ENE1.1 kmh ENE 3.0 mph4.8 kmh 30.10 in1019.3 mb 0.00 in0.0 mm 0.00 in0.0 mm 0.00 in0.0 mm
11:40 AM 60.6°F15.9°C 20.5°F-6.4°C 21% 0.9 mph NE1.4 kmh NE 3.0 mph4.8 kmh 30.10 in1019.3 mb 0.00 in0.0 mm 0.00 in0.0 mm 0.00 in0.0 mm
11:45 AM 62.0°F16.7°C 21.6°F-5.8°C 21% 0.6 mph S1.0 kmh S 3.0 mph4.8 kmh 30.10 in1019.3 mb 0.00 in0.0 mm 0.00 in0.0 mm 0.00 in0.0 mm
11:50 AM 62.8°F17.1°C 18.7°F-7.4°C 18% 0.3 mph S0.5 kmh S 2.0 mph3.2 kmh 30.09 in1019.0 mb 0.00 in0.0 mm 0.00 in0.0 mm 0.00 in0.0 mm
11:55 AM 63.1°F17.3°C 20.2°F-6.6°C 19% 0.8 mph SE1.3 kmh SE 3.0 mph4.8 kmh 30.09 in1019.0 mb 0.00 in0.0 mm 0.00 in0.0 mm 0.00 in0.0 mm
12:00 PM 63.0°F17.2°C 18.8°F-7.3°C 18% 0.6 mph E1.0 kmh E 4.0 mph6.4 kmh 30.08 in1018.6 mb 0.00 in0.0 mm 0.00 in0.0 mm 0.00 in0.0 mm
12:05 PM 63.0°F17.2°C 18.8°F-7.3°C 18% 1.5 mph E2.4 kmh E 5.0 mph8.0 kmh 30.08 in1018.6 mb 0.00 in0.0 mm 0.00 in0.0 mm 0.00 in0.0 mm
12:10 PM 62.9°F17.2°C 18.8°F-7.3°C 18% 0.6 mph E1.0 kmh E 5.0 mph8.0 kmh 30.08 in1018.6 mb 0.00 in0.0 mm 0.00 in0.0 mm 0.00 in0.0 mm
12:15 PM 63.3°F17.4°C 17.8°F-7.9°C 17% 1.3 mph ESE2.1 kmh ESE 4.0 mph6.4 kmh 30.07 in1018.3 mb 0.00 in0.0 mm 0.00 in0.0 mm 0.00 in0.0 mm
12:20 PM 63.1°F17.3°C 18.9°F-7.3°C 18% 0.6 mph S1.0 kmh S 4.0 mph6.4 kmh 30.07 in1018.3 mb 0.00 in0.0 mm 0.00 in0.0 mm 0.00 in0.0 mm
12:25 PM 63.2°F17.3°C 21.5°F-5.8°C 20% 1.5 mph SE2.4 kmh SE 3.0 mph4.8 kmh 30.07 in1018.3 mb 0.00 in0.0 mm 0.00 in0.0 mm 0.00 in0.0 mm
12:30 PM 63.9°F17.7°C 18.2°F-7.7°C 17% 0.5 mph SE0.8 kmh SE 3.0 mph4.8 kmh 30.06 in1017.9 mb 0.00 in0.0 mm 0.00 in0.0 mm 0.00 in0.0 mm
12:35 PM 64.4°F18.0°C 21.3°F-5.9°C 19% 0.9 mph SSE1.4 kmh SSE 3.0 mph4.8 kmh 30.06 in1017.9 mb 0.00 in0.0 mm 0.00 in0.0 mm 0.00 in0.0 mm
12:40 PM 64.6°F18.1°C 18.8°F-7.3°C 17% 0.9 mph E1.4 kmh E 3.0 mph4.8 kmh 30.05 in1017.6 mb 0.00 in0.0 mm 0.00 in0.0 mm 0.00 in0.0 mm
12:45 PM 64.5°F18.1°C 21.3°F-5.9°C 19% 1.5 mph E2.4 kmh E 6.0 mph9.7 kmh 30.05 in1017.6 mb 0.00 in0.0 mm 0.00 in0.0 mm 0.00 in0.0 mm
12:50 PM 65.0°F18.3°C 21.7°F-5.7°C 19% 1.5 mph SSE2.4 kmh SSE 6.0 mph9.7 kmh 30.05 in1017.6 mb 0.00 in0.0 mm 0.00 in0.0 mm 0.00 in0.0 mm
12:55 PM 65.1°F18.4°C 19.2°F-7.1°C 17% 0.6 mph S1.0 kmh S 4.0 mph6.4 kmh 30.04 in1017.3 mb 0.00 in0.0 mm 0.00 in0.0 mm 0.00 in0.0 mm
01:00 PM 65.5°F18.6°C 19.5°F-6.9°C 17% 0.7 mph S1.1 kmh S 3.0 mph4.8 kmh 30.04 in1017.3 mb 0.00 in0.0 mm 0.00 in0.0 mm 0.00 in0.0 mm
01:05 PM 65.8°F18.8°C 19.8°F-6.8°C 17% 1.1 mph SSE1.8 kmh SSE 3.0 mph4.8 kmh 30.04 in1017.3 mb 0.00 in0.0 mm 0.00 in0.0 mm 0.00 in0.0 mm
01:10 PM 66.3°F19.1°C 21.5°F-5.8°C 18% 1.1 mph S1.8 kmh S 4.0 mph6.4 kmh 30.03 in1016.9 mb 0.00 in0.0 mm 0.00 in0.0 mm 0.00 in0.0 mm
01:15 PM 66.3°F19.1°C 21.5°F-5.8°C 18% 1.6 mph SE2.6 kmh SE 4.0 mph6.4 kmh 30.03 in1016.9 mb 0.00 in0.0 mm 0.00 in0.0 mm 0.00 in0.0 mm
01:20 PM 65.7°F18.7°C 19.7°F-6.8°C 17% 1.4 mph E2.3 kmh E 4.0 mph6.4 kmh 30.03 in1016.9 mb 0.00 in0.0 mm 0.00 in0.0 mm 0.00 in0.0 mm
01:25 PM 65.9°F18.8°C 21.2°F-6.0°C 18% 0.9 mph S1.4 kmh S 3.0 mph4.8 kmh 30.02 in1016.6 mb 0.00 in0.0 mm 0.00 in0.0 mm 0.00 in0.0 mm
01:30 PM 66.4°F19.1°C 21.6°F-5.8°C 18% 1.3 mph S2.1 kmh S 4.0 mph6.4 kmh 30.02 in1016.6 mb 0.00 in0.0 mm 0.00 in0.0 mm 0.00 in0.0 mm
01:35 PM 66.5°F19.2°C 20.4°F-6.4°C 17% 1.1 mph SW1.8 kmh SW 4.0 mph6.4 kmh 30.02 in1016.6 mb 0.00 in0.0 mm 0.00 in0.0 mm 0.00 in0.0 mm
01:40 PM 66.8°F19.3°C 19.2°F-7.1°C 16% 0.3 mph NW0.5 kmh NW 4.0 mph6.4 kmh 30.02 in1016.6 mb 0.00 in0.0 mm 0.00 in0.0 mm 0.00 in0.0 mm
01:45 PM 67.2°F19.6°C 20.9°F-6.2°C 17% 0.6 mph S1.0 kmh S 2.0 mph3.2 kmh 30.01 in1016.3 mb 0.00 in0.0 mm 0.00 in0.0 mm 0.00 in0.0 mm
01:50 PM 67.1°F19.5°C 20.8°F-6.2°C 17% 1.0 mph S1.6 kmh S 3.0 mph4.8 kmh 30.01 in1016.3 mb 0.00 in0.0 mm 0.00 in0.0 mm 0.00 in0.0 mm
01:55 PM 66.8°F19.3°C 17.7°F-7.9°C 15% 0.9 mph E1.4 kmh E 5.0 mph8.0 kmh 30.00 in1015.9 mb 0.00 in0.0 mm 0.00 in0.0 mm 0.00 in0.0 mm
02:00 PM 66.7°F19.3°C 21.9°F-5.6°C 18% 1.5 mph SE2.4 kmh SE 5.0 mph8.0 kmh 30.00 in1015.9 mb 0.00 in0.0 mm 0.00 in0.0 mm 0.00 in0.0 mm
02:05 PM 66.5°F19.2°C 21.7°F-5.7°C 18% 0.9 mph E1.4 kmh E 3.0 mph4.8 kmh 30.00 in1015.9 mb 0.00 in0.0 mm 0.00 in0.0 mm 0.00 in0.0 mm
02:10 PM 67.4°F19.7°C 23.7°F-4.6°C 19% 0.9 mph SSW1.4 kmh SSW 4.0 mph6.4 kmh 30.00 in1015.9 mb 0.00 in0.0 mm 0.00 in0.0 mm 0.00 in0.0 mm
02:15 PM 67.7°F19.8°C 21.3°F-5.9°C 17% 1.7 mph SSW2.7 kmh SSW 4.0 mph6.4 kmh 30.00 in1015.9 mb 0.00 in0.0 mm 0.00 in0.0 mm 0.00 in0.0 mm
02:20 PM 67.7°F19.8°C 22.7°F-5.2°C 18% 1.2 mph S1.9 kmh S 5.0 mph8.0 kmh 29.99 in1015.6 mb 0.00 in0.0 mm 0.00 in0.0 mm 0.00 in0.0 mm
02:25 PM 68.1°F20.1°C 20.2°F-6.6°C 16% 1.3 mph SSE2.1 kmh SSE 5.0 mph8.0 kmh 29.99 in1015.6 mb 0.00 in0.0 mm 0.00 in0.0 mm 0.00 in0.0 mm
02:30 PM 68.2°F20.1°C 20.3°F-6.5°C 16% 1.6 mph SSW2.6 kmh SSW 5.0 mph8.0 kmh 29.99 in1015.6 mb 0.00 in0.0 mm 0.00 in0.0 mm 0.00 in0.0 mm
02:35 PM 67.9°F19.9°C 17.0°F-8.3°C 14% 1.5 mph SSW2.4 kmh SSW 5.0 mph8.0 kmh 29.99 in1015.6 mb 0.00 in0.0 mm 0.00 in0.0 mm 0.00 in0.0 mm
02:40 PM 68.0°F20.0°C 20.1°F-6.6°C 16% 0.8 mph S1.3 kmh S 3.0 mph4.8 kmh 29.99 in1015.6 mb 0.00 in0.0 mm 0.00 in0.0 mm 0.00 in0.0 mm
02:45 PM 68.3°F20.2°C 18.9°F-7.3°C 15% 0.9 mph SSE1.4 kmh SSE 4.0 mph6.4 kmh 29.98 in1015.2 mb 0.00 in0.0 mm 0.00 in0.0 mm 0.00 in0.0 mm
02:50 PM 68.1°F20.1°C 18.7°F-7.4°C 15% 0.8 mph SE1.3 kmh SE 4.0 mph6.4 kmh 29.98 in1015.2 mb 0.00 in0.0 mm 0.00 in0.0 mm 0.00 in0.0 mm
02:55 PM 68.0°F20.0°C 18.6°F-7.4°C 15% 1.8 mph SSE2.9 kmh SSE 4.0 mph6.4 kmh 29.98 in1015.2 mb 0.00 in0.0 mm 0.00 in0.0 mm 0.00 in0.0 mm
03:00 PM 68.1°F20.1°C 18.7°F-7.4°C 15% 1.4 mph SSE2.3 kmh SSE 4.0 mph6.4 kmh 29.98 in1015.2 mb 0.00 in0.0 mm 0.00 in0.0 mm 0.00 in0.0 mm
03:05 PM 67.3°F19.6°C 18.1°F-7.7°C 15% 2.9 mph ENE4.7 kmh ENE 10.0 mph16.1 kmh 29.97 in1014.9 mb 0.00 in0.0 mm 0.00 in0.0 mm 0.00 in0.0 mm
03:10 PM 67.6°F19.8°C 19.8°F-6.8°C 16% 1.8 mph SE2.9 kmh SE 10.0 mph16.1 kmh 29.97 in1014.9 mb 0.00 in0.0 mm 0.00 in0.0 mm 0.00 in0.0 mm
03:15 PM 67.9°F19.9°C 18.6°F-7.4°C 15% 1.2 mph ESE1.9 kmh ESE 6.0 mph9.7 kmh 29.97 in1014.9 mb 0.00 in0.0 mm 0.00 in0.0 mm 0.00 in0.0 mm
03:20 PM 68.0°F20.0°C 18.6°F-7.4°C 15% 1.8 mph SSE2.9 kmh SSE 4.0 mph6.4 kmh 29.97 in1014.9 mb 0.00 in0.0 mm 0.00 in0.0 mm 0.00 in0.0 mm
03:25 PM 68.0°F20.0°C 18.6°F-7.4°C 15% 1.6 mph SSE2.6 kmh SSE 4.0 mph6.4 kmh 29.97 in1014.9 mb 0.00 in0.0 mm 0.00 in0.0 mm 0.00 in0.0 mm
03:30 PM 67.8°F19.9°C 20.0°F-6.7°C 16% 1.0 mph SE1.6 kmh SE 4.0 mph6.4 kmh 29.97 in1014.9 mb 0.00 in0.0 mm 0.00 in0.0 mm 0.00 in0.0 mm
03:35 PM 68.3°F20.2°C 17.3°F-8.2°C 14% 1.3 mph S2.1 kmh S 5.0 mph8.0 kmh 29.96 in1014.6 mb 0.00 in0.0 mm 0.00 in0.0 mm 0.00 in0.0 mm
03:40 PM 68.3°F20.2°C 17.3°F-8.2°C 14% 1.1 mph S1.8 kmh S 5.0 mph8.0 kmh 29.96 in1014.6 mb 0.00 in0.0 mm 0.00 in0.0 mm 0.00 in0.0 mm
03:45 PM 68.3°F20.2°C 17.3°F-8.2°C 14% 0.9 mph S1.4 kmh S 3.0 mph4.8 kmh 29.96 in1014.6 mb 0.00 in0.0 mm 0.00 in0.0 mm 0.00 in0.0 mm
03:50 PM 68.7°F20.4°C 19.2°F-7.1°C 15% 0.8 mph S1.3 kmh S 3.0 mph4.8 kmh 29.96 in1014.6 mb 0.00 in0.0 mm 0.00 in0.0 mm 0.00 in0.0 mm
03:55 PM 68.9°F20.5°C 17.8°F-7.9°C 14% 0.8 mph S1.3 kmh S 3.0 mph4.8 kmh 29.96 in1014.6 mb 0.00 in0.0 mm 0.00 in0.0 mm 0.00 in0.0 mm
04:00 PM 69.0°F20.6°C 16.1°F-8.8°C 13% 1.3 mph S2.1 kmh S 3.0 mph4.8 kmh 29.96 in1014.6 mb 0.00 in0.0 mm 0.00 in0.0 mm 0.00 in0.0 mm
04:05 PM 68.7°F20.4°C 15.9°F-8.9°C 13% 0.9 mph S1.4 kmh S 3.0 mph4.8 kmh 29.96 in1014.6 mb 0.00 in0.0 mm 0.00 in0.0 mm 0.00 in0.0 mm
04:10 PM 68.8°F20.4°C 17.7°F-7.9°C 14% 0.4 mph S0.6 kmh S 4.0 mph6.4 kmh 29.95 in1014.2 mb 0.00 in0.0 mm 0.00 in0.0 mm 0.00 in0.0 mm
04:15 PM 68.6°F20.3°C 15.8°F-9.0°C 13% 1.9 mph S3.1 kmh S 4.0 mph6.4 kmh 29.95 in1014.2 mb 0.00 in0.0 mm 0.00 in0.0 mm 0.00 in0.0 mm
04:20 PM 68.2°F20.1°C 15.5°F-9.2°C 13% 1.3 mph SE2.1 kmh SE 4.0 mph6.4 kmh 29.95 in1014.2 mb 0.00 in0.0 mm 0.00 in0.0 mm 0.00 in0.0 mm
04:25 PM 68.0°F20.0°C 15.3°F-9.3°C 13% 1.0 mph SSE1.6 kmh SSE 4.0 mph6.4 kmh 29.95 in1014.2 mb 0.00 in0.0 mm 0.00 in0.0 mm 0.00 in0.0 mm
04:30 PM 68.3°F20.2°C 13.7°F-10.2°C 12% 0.7 mph SSW1.1 kmh SSW 3.0 mph4.8 kmh 29.95 in1014.2 mb 0.00 in0.0 mm 0.00 in0.0 mm 0.00 in0.0 mm
04:35 PM 68.3°F20.2°C 15.6°F-9.1°C 13% 1.1 mph S1.8 kmh S 3.0 mph4.8 kmh 29.95 in1014.2 mb 0.00 in0.0 mm 0.00 in0.0 mm 0.00 in0.0 mm
04:40 PM 68.1°F20.1°C 17.1°F-8.3°C 14% 1.5 mph SSW2.4 kmh SSW 4.0 mph6.4 kmh 29.95 in1014.2 mb 0.00 in0.0 mm 0.00 in0.0 mm 0.00 in0.0 mm
04:45 PM 67.9°F19.9°C 15.3°F-9.3°C 13% 1.2 mph S1.9 kmh S 4.0 mph6.4 kmh 29.95 in1014.2 mb 0.00 in0.0 mm 0.00 in0.0 mm 0.00 in0.0 mm
04:50 PM 67.7°F19.8°C 16.8°F-8.4°C 14% 1.1 mph SSW1.8 kmh SSW 4.0 mph6.4 kmh 29.95 in1014.2 mb 0.00 in0.0 mm 0.00 in0.0 mm 0.00 in0.0 mm
04:55 PM 67.8°F19.9°C 16.9°F-8.4°C 14% 0.2 mph SE0.3 kmh SE 4.0 mph6.4 kmh 29.95 in1014.2 mb 0.00 in0.0 mm 0.00 in0.0 mm 0.00 in0.0 mm
05:00 PM 68.0°F20.0°C 17.0°F-8.3°C 14% 0.9 mph SSW1.4 kmh SSW 2.0 mph3.2 kmh 29.95 in1014.2 mb 0.00 in0.0 mm 0.00 in0.0 mm 0.00 in0.0 mm
05:05 PM 67.7°F19.8°C 15.1°F-9.4°C 13% 0.9 mph SSW1.4 kmh SSW 2.0 mph3.2 kmh 29.95 in1014.2 mb 0.00 in0.0 mm 0.00 in0.0 mm 0.00 in0.0 mm
05:10 PM 67.5°F19.7°C 14.9°F-9.5°C 13% 1.3 mph SSW2.1 kmh SSW 6.0 mph9.7 kmh 29.95 in1014.2 mb 0.00 in0.0 mm 0.00 in0.0 mm 0.00 in0.0 mm
05:15 PM 67.4°F19.7°C 14.9°F-9.5°C 13% 0.8 mph S1.3 kmh S 6.0 mph9.7 kmh 29.95 in1014.2 mb 0.00 in0.0 mm 0.00 in0.0 mm 0.00 in0.0 mm
05:20 PM 67.4°F19.7°C 14.9°F-9.5°C 13% 0.6 mph S1.0 kmh S 2.0 mph3.2 kmh 29.95 in1014.2 mb 0.00 in0.0 mm 0.00 in0.0 mm 0.00 in0.0 mm
05:25 PM 67.5°F19.7°C 14.9°F-9.5°C 13% 0.3 mph SSW0.5 kmh SSW 2.0 mph3.2 kmh 29.95 in1014.2 mb 0.00 in0.0 mm 0.00 in0.0 mm 0.00 in0.0 mm
05:30 PM 67.1°F19.5°C 16.3°F-8.7°C 14% 1.0 mph S1.6 kmh S 3.0 mph4.8 kmh 29.95 in1014.2 mb 0.00 in0.0 mm 0.00 in0.0 mm 0.00 in0.0 mm
05:35 PM 66.7°F19.3°C 16.0°F-8.9°C 14% 1.0 mph SSW1.6 kmh SSW 3.0 mph4.8 kmh 29.95 in1014.2 mb 0.00 in0.0 mm 0.00 in0.0 mm 0.00 in0.0 mm
05:40 PM 66.8°F19.3°C 16.1°F-8.8°C 14% 0.2 mph SW0.3 kmh SW 3.0 mph4.8 kmh 29.95 in1014.2 mb 0.00 in0.0 mm 0.00 in0.0 mm 0.00 in0.0 mm
05:45 PM 66.9°F19.4°C 16.2°F-8.8°C 14% 0.4 mph S0.6 kmh S 2.0 mph3.2 kmh 29.95 in1014.2 mb 0.00 in0.0 mm 0.00 in0.0 mm 0.00 in0.0 mm
05:50 PM 66.7°F19.3°C 16.0°F-8.9°C 14% 0.3 mph SW0.5 kmh SW 2.0 mph3.2 kmh 29.95 in1014.2 mb 0.00 in0.0 mm 0.00 in0.0 mm 0.00 in0.0 mm
05:55 PM 66.4°F19.1°C 15.8°F-9.0°C 14% 0.3 mph S0.5 kmh S 1.0 mph1.6 kmh 29.95 in1014.2 mb 0.00 in0.0 mm 0.00 in0.0 mm 0.00 in0.0 mm
06:00 PM 66.3°F19.1°C 15.7°F-9.1°C 14% Calm Calm 1.0 mph1.6 kmh 29.95 in1014.2 mb 0.00 in0.0 mm 0.00 in0.0 mm 0.00 in0.0 mm
06:05 PM 65.8°F18.8°C 15.3°F-9.3°C 14% 0.2 mph SW0.3 kmh SW 1.0 mph1.6 kmh 29.95 in1014.2 mb 0.00 in0.0 mm 0.00 in0.0 mm 0.00 in0.0 mm
06:10 PM 65.0°F18.3°C 16.2°F-8.8°C 15% Calm Calm 1.0 mph1.6 kmh 29.95 in1014.2 mb 0.00 in0.0 mm 0.00 in0.0 mm 0.00 in0.0 mm
06:15 PM 63.9°F17.7°C 15.4°F-9.2°C 15% Calm Calm -- 29.95 in1014.2 mb 0.00 in0.0 mm 0.00 in0.0 mm 0.00 in0.0 mm
06:20 PM 62.7°F17.1°C 15.9°F-8.9°C 16% Calm Calm -- 29.95 in1014.2 mb 0.00 in0.0 mm 0.00 in0.0 mm 0.00 in0.0 mm
06:25 PM 61.8°F16.6°C 15.1°F-9.4°C 16% Calm Calm -- 29.95 in1014.2 mb 0.00 in0.0 mm 0.00 in0.0 mm 0.00 in0.0 mm
06:30 PM 60.8°F16.0°C 15.7°F-9.1°C 17% Calm Calm -- 29.95 in1014.2 mb 0.00 in0.0 mm 0.00 in0.0 mm 0.00 in0.0 mm
06:35 PM 60.0°F15.6°C 15.1°F-9.4°C 17% Calm Calm -- 29.95 in1014.2 mb 0.00 in0.0 mm 0.00 in0.0 mm 0.00 in0.0 mm
06:40 PM 59.0°F15.0°C 15.6°F-9.1°C 18% Calm Calm -- 29.95 in1014.2 mb 0.00 in0.0 mm 0.00 in0.0 mm 0.00 in0.0 mm
06:45 PM 57.9°F14.4°C 15.9°F-8.9°C 19% Calm Calm -- 29.95 in1014.2 mb 0.00 in0.0 mm 0.00 in0.0 mm 0.00 in0.0 mm
06:50 PM 56.8°F13.8°C 15.0°F-9.4°C 19% Calm Calm -- 29.94 in1013.9 mb 0.00 in0.0 mm 0.00 in0.0 mm 0.00 in0.0 mm
06:55 PM 56.0°F13.3°C 15.5°F-9.2°C 20% Calm Calm -- 29.94 in1013.9 mb 0.00 in0.0 mm 0.00 in0.0 mm 0.00 in0.0 mm
07:00 PM 55.1°F12.8°C 15.9°F-8.9°C 21% Calm Calm -- 29.95 in1014.2 mb 0.00 in0.0 mm 0.00 in0.0 mm 0.00 in0.0 mm
07:05 PM 54.5°F12.5°C 15.4°F-9.2°C 21% Calm Calm -- 29.94 in1013.9 mb 0.00 in0.0 mm 0.00 in0.0 mm 0.00 in0.0 mm
07:10 PM 53.6°F12.0°C 15.7°F-9.1°C 22% Calm Calm -- 29.94 in1013.9 mb 0.00 in0.0 mm 0.00 in0.0 mm 0.00 in0.0 mm
07:15 PM 53.0°F11.7°C 16.2°F-8.8°C 23% Calm Calm -- 29.95 in1014.2 mb 0.00 in0.0 mm 0.00 in0.0 mm 0.00 in0.0 mm
07:20 PM 52.9°F11.6°C 16.1°F-8.8°C 23% Calm Calm -- 29.94 in1013.9 mb 0.00 in0.0 mm 0.00 in0.0 mm 0.00 in0.0 mm
07:25 PM 53.4°F11.9°C 16.5°F-8.6°C 23% Calm Calm -- 29.94 in1013.9 mb 0.00 in0.0 mm 0.00 in0.0 mm 0.00 in0.0 mm
07:30 PM 54.2°F12.3°C 16.2°F-8.8°C 22% Calm Calm -- 29.95 in1014.2 mb 0.00 in0.0 mm 0.00 in0.0 mm 0.00 in0.0 mm
07:35 PM 54.6°F12.6°C 16.5°F-8.6°C 22% Calm Calm -- 29.95 in1014.2 mb 0.00 in0.0 mm 0.00 in0.0 mm 0.00 in0.0 mm
07:40 PM 54.1°F12.3°C 17.1°F-8.3°C 23% Calm Calm -- 29.95 in1014.2 mb 0.00 in0.0 mm 0.00 in0.0 mm 0.00 in0.0 mm
07:45 PM 53.8°F12.1°C 16.9°F-8.4°C 23% Calm Calm -- 29.95 in1014.2 mb 0.00 in0.0 mm 0.00 in0.0 mm 0.00 in0.0 mm
07:50 PM 54.1°F12.3°C 17.1°F-8.3°C 23% Calm Calm -- 29.95 in1014.2 mb 0.00 in0.0 mm 0.00 in0.0 mm 0.00 in0.0 mm
07:55 PM 54.2°F12.3°C 17.2°F-8.2°C 23% Calm Calm -- 29.95 in1014.2 mb 0.00 in0.0 mm 0.00 in0.0 mm 0.00 in0.0 mm
08:00 PM 53.9°F12.2°C 17.0°F-8.3°C 23% Calm Calm -- 29.95 in1014.2 mb 0.00 in0.0 mm 0.00 in0.0 mm 0.00 in0.0 mm
08:05 PM 53.6°F12.0°C 16.7°F-8.5°C 23% Calm Calm -- 29.95 in1014.2 mb 0.00 in0.0 mm 0.00 in0.0 mm 0.00 in0.0 mm
08:10 PM 53.2°F11.8°C 17.4°F-8.1°C 24% Calm Calm -- 29.95 in1014.2 mb 0.00 in0.0 mm 0.00 in0.0 mm 0.00 in0.0 mm
08:15 PM 53.0°F11.7°C 18.1°F-7.7°C 25% Calm Calm -- 29.95 in1014.2 mb 0.00 in0.0 mm 0.00 in0.0 mm 0.00 in0.0 mm
08:20 PM 52.6°F11.4°C 16.9°F-8.4°C 24% Calm Calm -- 29.95 in1014.2 mb 0.00 in0.0 mm 0.00 in0.0 mm 0.00 in0.0 mm
08:25 PM 52.0°F11.1°C 17.3°F-8.2°C 25% Calm Calm -- 29.95 in1014.2 mb 0.00 in0.0 mm 0.00 in0.0 mm 0.00 in0.0 mm
08:30 PM 51.6°F10.9°C 16.9°F-8.4°C 25% Calm Calm -- 29.95 in1014.2 mb 0.00 in0.0 mm 0.00 in0.0 mm 0.00 in0.0 mm
08:35 PM 51.0°F10.6°C 17.3°F-8.2°C 26% Calm Calm -- 29.95 in1014.2 mb 0.00 in0.0 mm 0.00 in0.0 mm 0.00 in0.0 mm
08:40 PM 50.0°F10.0°C 16.5°F-8.6°C 26% Calm Calm -- 29.95 in1014.2 mb 0.00 in0.0 mm 0.00 in0.0 mm 0.00 in0.0 mm
08:45 PM 49.2°F9.6°C 16.7°F-8.5°C 27% Calm Calm -- 29.95 in1014.2 mb 0.00 in0.0 mm 0.00 in0.0 mm 0.00 in0.0 mm
08:50 PM 48.9°F9.4°C 16.4°F-8.7°C 27% Calm Calm -- 29.95 in1014.2 mb 0.00 in0.0 mm 0.00 in0.0 mm 0.00 in0.0 mm
08:55 PM 48.7°F9.3°C 16.2°F-8.8°C 27% Calm Calm -- 29.95 in1014.2 mb 0.00 in0.0 mm 0.00 in0.0 mm 0.00 in0.0 mm
09:00 PM 48.3°F9.1°C 16.7°F-8.5°C 28% Calm Calm -- 29.95 in1014.2 mb 0.00 in0.0 mm 0.00 in0.0 mm 0.00 in0.0 mm
09:05 PM 47.8°F8.8°C 16.3°F-8.7°C 28% Calm Calm -- 29.95 in1014.2 mb 0.00 in0.0 mm 0.00 in0.0 mm 0.00 in0.0 mm
09:10 PM 47.5°F8.6°C 16.8°F-8.4°C 29% Calm Calm -- 29.95 in1014.2 mb 0.00 in0.0 mm 0.00 in0.0 mm 0.00 in0.0 mm
09:15 PM 47.4°F8.6°C 16.8°F-8.4°C 29% Calm Calm -- 29.95 in1014.2 mb 0.00 in0.0 mm 0.00 in0.0 mm 0.00 in0.0 mm
09:20 PM 47.2°F8.4°C 16.6°F-8.6°C 29% Calm Calm -- 29.95 in1014.2 mb 0.00 in0.0 mm 0.00 in0.0 mm 0.00 in0.0 mm
09:25 PM 47.1°F8.4°C 16.5°F-8.6°C 29% Calm Calm -- 29.96 in1014.6 mb 0.00 in0.0 mm 0.00 in0.0 mm 0.00 in0.0 mm
09:30 PM 47.2°F8.4°C 16.6°F-8.6°C 29% Calm Calm -- 29.96 in1014.6 mb 0.00 in0.0 mm 0.00 in0.0 mm 0.00 in0.0 mm
09:35 PM 47.5°F8.6°C 16.8°F-8.4°C 29% 0.1 mph N0.2 kmh N 1.0 mph1.6 kmh 29.96 in1014.6 mb 0.00 in0.0 mm 0.00 in0.0 mm 0.00 in0.0 mm
09:40 PM 47.6°F8.7°C 16.9°F-8.4°C 29% 0.3 mph N0.5 kmh N 2.0 mph3.2 kmh 29.96 in1014.6 mb 0.00 in0.0 mm 0.00 in0.0 mm 0.00 in0.0 mm
09:45 PM 47.6°F8.7°C 16.9°F-8.4°C 29% 0.4 mph NNW0.6 kmh NNW 2.0 mph3.2 kmh 29.96 in1014.6 mb 0.00 in0.0 mm 0.00 in0.0 mm 0.00 in0.0 mm
09:50 PM 47.5°F8.6°C 16.8°F-8.4°C 29% 0.2 mph NW0.3 kmh NW 2.0 mph3.2 kmh 29.96 in1014.6 mb 0.00 in0.0 mm 0.00 in0.0 mm 0.00 in0.0 mm
09:55 PM 47.3°F8.5°C 17.5°F-8.1°C 30% Calm Calm 1.0 mph1.6 kmh 29.96 in1014.6 mb 0.00 in0.0 mm 0.00 in0.0 mm 0.00 in0.0 mm
10:00 PM 47.0°F8.3°C 17.2°F-8.2°C 30% Calm Calm -- 29.96 in1014.6 mb 0.00 in0.0 mm 0.00 in0.0 mm 0.00 in0.0 mm
10:05 PM 46.6°F8.1°C 16.8°F-8.4°C 30% Calm Calm -- 29.96 in1014.6 mb 0.00 in0.0 mm 0.00 in0.0 mm 0.00 in0.0 mm
10:10 PM 46.3°F7.9°C 16.6°F-8.6°C 30% Calm Calm -- 29.95 in1014.2 mb 0.00 in0.0 mm 0.00 in0.0 mm 0.00 in0.0 mm
10:15 PM 46.1°F7.8°C 17.2°F-8.2°C 31% Calm Calm -- 29.95 in1014.2 mb 0.00 in0.0 mm 0.00 in0.0 mm 0.00 in0.0 mm
10:20 PM 46.0°F7.8°C 17.1°F-8.3°C 31% Calm Calm 1.0 mph1.6 kmh 29.95 in1014.2 mb 0.00 in0.0 mm 0.00 in0.0 mm 0.00 in0.0 mm
10:25 PM 46.0°F7.8°C 17.1°F-8.3°C 31% 0.1 mph N0.2 kmh N 1.0 mph1.6 kmh 29.95 in1014.2 mb 0.00 in0.0 mm 0.00 in0.0 mm 0.00 in0.0 mm
10:30 PM 45.9°F7.7°C 17.0°F-8.3°C 31% 0.1 mph N0.2 kmh N 1.0 mph1.6 kmh 29.95 in1014.2 mb 0.00 in0.0 mm 0.00 in0.0 mm 0.00 in0.0 mm
10:35 PM 45.9°F7.7°C 17.0°F-8.3°C 31% 0.3 mph N0.5 kmh N 1.0 mph1.6 kmh 29.95 in1014.2 mb 0.00 in0.0 mm 0.00 in0.0 mm 0.00 in0.0 mm
10:40 PM 45.8°F7.7°C 16.9°F-8.4°C 31% 0.4 mph N0.6 kmh N 2.0 mph3.2 kmh 29.95 in1014.2 mb 0.00 in0.0 mm 0.00 in0.0 mm 0.00 in0.0 mm
10:45 PM 45.9°F7.7°C 16.2°F-8.8°C 30% 0.3 mph N0.5 kmh N 2.0 mph3.2 kmh 29.95 in1014.2 mb 0.00 in0.0 mm 0.00 in0.0 mm 0.00 in0.0 mm
10:50 PM 45.9°F7.7°C 16.2°F-8.8°C 30% 0.2 mph N0.3 kmh N 1.0 mph1.6 kmh 29.95 in1014.2 mb 0.00 in0.0 mm 0.00 in0.0 mm 0.00 in0.0 mm
10:55 PM 45.9°F7.7°C 16.2°F-8.8°C 30% 0.1 mph N0.2 kmh N 1.0 mph1.6 kmh 29.95 in1014.2 mb 0.00 in0.0 mm 0.00 in0.0 mm 0.00 in0.0 mm
11:00 PM 45.9°F7.7°C 17.0°F-8.3°C 31% Calm Calm 1.0 mph1.6 kmh 29.95 in1014.2 mb 0.00 in0.0 mm 0.00 in0.0 mm 0.00 in0.0 mm
11:05 PM 45.8°F7.7°C 16.9°F-8.4°C 31% Calm Calm -- 29.95 in1014.2 mb 0.00 in0.0 mm 0.00 in0.0 mm 0.00 in0.0 mm
11:10 PM 45.6°F7.6°C 16.7°F-8.5°C 31% Calm Calm -- 29.95 in1014.2 mb 0.00 in0.0 mm 0.00 in0.0 mm 0.00 in0.0 mm
11:15 PM 45.5°F7.5°C 17.4°F-8.1°C 32% Calm Calm 1.0 mph1.6 kmh 29.95 in1014.2 mb 0.00 in0.0 mm 0.00 in0.0 mm 0.00 in0.0 mm
11:20 PM 45.3°F7.4°C 17.2°F-8.2°C 32% 0.1 mph N0.2 kmh N 1.0 mph1.6 kmh 29.95 in1014.2 mb 0.00 in0.0 mm 0.00 in0.0 mm 0.00 in0.0 mm
11:25 PM 45.1°F7.3°C 17.0°F-8.3°C 32% 0.1 mph N0.2 kmh N 1.0 mph1.6 kmh 29.95 in1014.2 mb 0.00 in0.0 mm 0.00 in0.0 mm 0.00 in0.0 mm
11:30 PM 45.0°F7.2°C 16.9°F-8.4°C 32% 0.5 mph N0.8 kmh N 1.0 mph1.6 kmh 29.95 in1014.2 mb 0.00 in0.0 mm 0.00 in0.0 mm 0.00 in0.0 mm
11:35 PM 45.0°F7.2°C 16.9°F-8.4°C 32% 0.2 mph NNE0.3 kmh NNE 2.0 mph3.2 kmh 29.95 in1014.2 mb 0.00 in0.0 mm 0.00 in0.0 mm 0.00 in0.0 mm
11:40 PM 45.0°F7.2°C 16.9°F-8.4°C 32% 0.5 mph N0.8 kmh N 2.0 mph3.2 kmh 29.95 in1014.2 mb 0.00 in0.0 mm 0.00 in0.0 mm 0.00 in0.0 mm
11:45 PM 44.9°F7.2°C 16.8°F-8.4°C 32% 0.4 mph N0.6 kmh N 2.0 mph3.2 kmh 29.95 in1014.2 mb 0.00 in0.0 mm 0.00 in0.0 mm 0.00 in0.0 mm
11:50 PM 44.8°F7.1°C 16.8°F-8.4°C 32% 0.3 mph N0.5 kmh N 2.0 mph3.2 kmh 29.95 in1014.2 mb 0.00 in0.0 mm 0.00 in0.0 mm 0.00 in0.0 mm
11:55 PM 44.7°F7.1°C 16.7°F-8.5°C 32% Calm Calm 1.0 mph1.6 kmh 29.95 in1014.2 mb 0.00 in0.0 mm 0.00 in0.0 mm 0.00 in0.0 mm